Pagrindinis puslapis
METAR-TAF:

METAR-TAF

Oro uostai :

Sivasas, Turkija

platuma: 39-45N, ilguma: 037-01E, Aukštis: 1285 m

Dabartinis oras

Ataskaita buvo paskelbta 1 valandą ir 0 minutes, ne 22:50 UTC
Vėjas 3 kt iš Pietų/Pietryčių
Temperatūra 12°C
Drėgmė 50%
Slėgis 1023 hPa
Matomumas 10 km arba daugiau
nėra debesų žemiau 1500 m ir nėra kamuolinių lietaus debesų

METAR: LTAR 182250Z 16003KT CAVOK 12/02 Q1023

Laikas: 02:50 (23:50 UTC)

Prognozė

Ataskaita buvo paskelbta 1 valandą ir 10 minutes, ne 22:40 UTC
Prognozė galioja nuo 19 metu 00 UTC su 19 metu 09 UTC
Vėjas 2 kt nuo kintamojo kryptimis
Matomumas 10 km arba daugiau
nėra debesų žemiau 1500 m ir nėra kamuolinių lietaus debesų

TAF: LTAR 182240Z 1900/1909 VRB02KT CAVOK

Orai ataskaitas ir orų prognozės (METAR, TAF).

turimą stotys yra geltonos ir raudonos taškus žemėlapyje.

Perkelti pele per norėdami pamatyti stoties vardą.

Tada spustelėkite, norėdami matyti oro stebėjimo ir prognozės.

Norėdami pakeisti žemėlapį: spustelėkite ant žalios mygtukų su juodo kryžiaus žemyn,; žalią mygtuką su brūkšneliu, jei norite nutolinti; arba žalių rodyklių gretimoms žemėlapius.


METAR-TAF: